createdAt,value
2022-08-17T00:01:45.527Z,26.50
2022-08-17T00:04:19.183Z,26.40
2022-08-17T00:06:46.137Z,26.50
2022-08-17T00:09:18.266Z,26.40
2022-08-17T00:12:40.598Z,26.40
2022-08-17T00:14:33.275Z,26.40
2022-08-17T00:17:00.012Z,26.30
2022-08-17T00:19:26.952Z,26.30
2022-08-17T00:22:31.670Z,26.30
2022-08-17T00:24:44.172Z,26.30
2022-08-17T00:27:10.913Z,26.30
2022-08-17T00:29:37.609Z,26.30
2022-08-17T00:33:12.227Z,26.20
2022-08-17T00:34:51.471Z,26.20
2022-08-17T00:37:18.120Z,26.20
2022-08-17T00:39:44.805Z,26.20
2022-08-17T00:42:16.894Z,26.20
2022-08-17T00:44:44.600Z,26.20
2022-08-17T00:47:11.278Z,26.10
2022-08-17T00:49:37.934Z,26.10
2022-08-17T00:52:15.598Z,26.10
2022-08-17T00:54:46.860Z,26.10
2022-08-17T00:57:21.015Z,26.10
2022-08-17T01:00:01.646Z,26.10
2022-08-17T01:02:51.741Z,26.10
2022-08-17T01:05:24.081Z,26.10
2022-08-17T01:07:53.571Z,26.10
2022-08-17T01:11:00.534Z,26.10
2022-08-17T01:13:14.627Z,26.10
2022-08-17T01:15:52.100Z,26.10
2022-08-17T01:18:18.976Z,26.00
2022-08-17T01:20:49.919Z,26.00
2022-08-17T01:23:20.751Z,26.00
2022-08-17T01:25:53.930Z,25.90
2022-08-17T01:28:52.449Z,25.90
2022-08-17T01:31:08.992Z,25.90
2022-08-17T01:33:36.007Z,25.90
2022-08-17T01:36:04.102Z,25.90
2022-08-17T01:38:31.801Z,25.80
2022-08-17T01:41:06.875Z,25.80
2022-08-17T01:43:47.792Z,25.80
2022-08-17T01:46:21.010Z,25.70
2022-08-17T01:48:48.382Z,25.70
2022-08-17T01:51:16.009Z,25.70
2022-08-17T01:53:47.273Z,25.70
2022-08-17T01:56:17.314Z,25.70
2022-08-17T01:58:44.453Z,25.70
2022-08-17T02:01:14.057Z,25.60
2022-08-17T02:03:41.400Z,25.60
2022-08-17T02:06:27.783Z,25.50
2022-08-17T02:09:03.134Z,25.60
2022-08-17T02:11:33.662Z,25.50
2022-08-17T02:14:03.251Z,25.50
2022-08-17T02:16:36.636Z,25.50
2022-08-17T02:19:07.865Z,25.40
2022-08-17T02:21:35.793Z,25.40
2022-08-17T02:24:04.404Z,25.40
2022-08-17T02:26:31.816Z,25.40
2022-08-17T02:28:58.491Z,25.40
2022-08-17T02:31:25.317Z,25.40
2022-08-17T02:33:56.662Z,25.30
2022-08-17T02:36:31.800Z,25.30
2022-08-17T02:38:58.642Z,25.30
2022-08-17T02:41:25.533Z,25.30
2022-08-17T02:43:53.090Z,25.30
2022-08-17T02:46:19.822Z,25.30
2022-08-17T02:51:28.378Z,25.30
2022-08-17T02:54:05.296Z,25.20
2022-08-17T02:56:42.341Z,25.20
2022-08-17T02:59:09.034Z,25.30
2022-08-17T03:01:35.791Z,25.20
2022-08-17T03:04:02.703Z,25.20
2022-08-17T03:06:29.573Z,25.20
2022-08-17T03:08:56.194Z,25.20
2022-08-17T03:11:23.480Z,25.20
2022-08-17T03:13:51.020Z,25.20
2022-08-17T03:16:17.752Z,25.20
2022-08-17T03:18:44.373Z,25.10
2022-08-17T03:21:11.020Z,25.10
2022-08-17T03:23:42.073Z,25.10
2022-08-17T03:26:15.256Z,25.10
2022-08-17T03:28:42.128Z,25.00
2022-08-17T03:31:08.763Z,25.00
2022-08-17T03:33:35.447Z,25.00
2022-08-17T03:36:02.094Z,25.00
2022-08-17T03:38:28.785Z,25.00
2022-08-17T03:41:06.964Z,24.90
2022-08-17T03:43:34.566Z,24.90
2022-08-17T03:46:29.009Z,24.90
2022-08-17T03:49:20.971Z,24.90
2022-08-17T03:52:06.205Z,24.90
2022-08-17T03:54:51.375Z,24.80
2022-08-17T03:57:19.035Z,24.80
2022-08-17T03:59:45.886Z,24.80
2022-08-17T04:02:24.255Z,24.80
2022-08-17T04:04:52.076Z,24.80
2022-08-17T04:07:20.380Z,24.80
2022-08-17T04:09:47.564Z,24.80
2022-08-17T04:12:19.724Z,24.80
2022-08-17T04:14:53.588Z,24.80
2022-08-17T04:17:26.238Z,24.80
2022-08-17T04:19:53.684Z,24.70
2022-08-17T04:22:32.136Z,24.70
2022-08-17T04:25:02.048Z,24.70
2022-08-17T04:27:28.686Z,24.60
2022-08-17T04:29:56.136Z,24.60
2022-08-17T04:33:00.852Z,24.60
2022-08-17T04:35:09.884Z,24.60
2022-08-17T04:37:36.625Z,24.60
2022-08-17T04:40:22.541Z,24.60
2022-08-17T04:43:10.773Z,24.60
2022-08-17T04:45:55.096Z,24.60
2022-08-17T04:48:29.770Z,24.60
2022-08-17T04:51:05.792Z,24.60
2022-08-17T04:53:32.533Z,24.60
2022-08-17T04:55:59.310Z,24.60
2022-08-17T04:58:26.091Z,24.60
2022-08-17T05:00:53.189Z,24.60
2022-08-17T05:03:19.915Z,24.60
2022-08-17T05:05:49.662Z,24.60
2022-08-17T05:08:18.563Z,24.60
2022-08-17T05:10:45.987Z,24.60
2022-08-17T05:13:18.802Z,24.60
2022-08-17T05:15:47.776Z,24.60
2022-08-17T05:18:16.640Z,24.60
2022-08-17T05:20:44.357Z,24.60
2022-08-17T05:23:14.868Z,24.60
2022-08-17T05:25:46.231Z,24.60
2022-08-17T05:28:15.167Z,24.60
2022-08-17T05:30:43.842Z,24.70
2022-08-17T05:33:19.442Z,24.70
2022-08-17T05:35:49.512Z,24.70
2022-08-17T05:38:18.016Z,24.70
2022-08-17T05:40:44.987Z,24.70
2022-08-17T05:43:14.193Z,24.70
2022-08-17T05:45:56.753Z,24.70
2022-08-17T05:48:39.100Z,24.70
2022-08-17T05:51:27.523Z,24.70
2022-08-17T05:54:15.456Z,24.70
2022-08-17T05:57:17.400Z,24.80
2022-08-17T06:00:10.325Z,24.80
2022-08-17T06:02:47.879Z,24.80
2022-08-17T06:05:51.421Z,24.80
2022-08-17T06:08:48.046Z,24.80
2022-08-17T06:11:26.693Z,24.80
2022-08-17T06:14:30.537Z,24.80
2022-08-17T06:17:04.468Z,24.80
2022-08-17T06:19:47.292Z,24.80
2022-08-17T06:22:18.176Z,24.80
2022-08-17T06:24:54.058Z,24.80
2022-08-17T06:27:41.308Z,24.80
2022-08-17T06:30:14.150Z,24.80
2022-08-17T06:32:45.041Z,24.80
2022-08-17T06:35:15.451Z,25.00
2022-08-17T06:38:09.362Z,24.90
2022-08-17T06:41:12.263Z,25.00
2022-08-17T06:44:09.950Z,25.00
2022-08-17T06:46:56.187Z,25.00
2022-08-17T06:49:28.517Z,25.10
2022-08-17T06:52:45.591Z,25.10
2022-08-17T06:55:27.516Z,25.10
2022-08-17T06:58:05.860Z,25.20
2022-08-17T07:00:46.907Z,25.20
2022-08-17T07:03:37.943Z,25.20
2022-08-17T07:06:15.667Z,25.30
2022-08-17T07:09:15.339Z,25.30
2022-08-17T07:11:56.390Z,25.40
2022-08-17T07:14:36.418Z,25.40
2022-08-17T07:17:09.374Z,25.40
2022-08-17T07:19:41.010Z,25.50
2022-08-17T07:22:57.456Z,25.50
2022-08-17T07:25:21.296Z,25.50
2022-08-17T07:27:54.277Z,25.60
2022-08-17T07:30:47.081Z,25.60
2022-08-17T07:33:23.677Z,25.60
2022-08-17T07:35:50.695Z,25.70
2022-08-17T07:38:31.737Z,25.70
2022-08-17T07:41:02.084Z,25.70
2022-08-17T07:43:33.983Z,25.80
2022-08-17T07:46:38.396Z,25.70
2022-08-17T07:49:06.646Z,25.80
2022-08-17T07:51:52.949Z,25.90
2022-08-17T07:54:22.669Z,25.90
2022-08-17T07:57:00.434Z,25.90
2022-08-17T07:59:33.356Z,26.00
2022-08-17T08:02:02.265Z,26.00
2022-08-17T08:05:00.459Z,26.10
2022-08-17T08:07:34.578Z,26.10
2022-08-17T08:10:05.941Z,26.10
2022-08-17T08:12:39.225Z,26.20
2022-08-17T08:15:19.151Z,26.30
2022-08-17T08:17:54.029Z,26.30
2022-08-17T08:20:52.387Z,26.30
2022-08-17T08:23:30.547Z,26.30
2022-08-17T08:26:42.231Z,26.30
2022-08-17T08:29:28.489Z,26.40
2022-08-17T08:32:10.953Z,26.40
2022-08-17T08:35:01.617Z,26.50
2022-08-17T08:37:58.463Z,26.50
2022-08-17T08:40:35.130Z,26.50
2022-08-17T08:43:24.373Z,26.60
2022-08-17T08:46:20.550Z,26.70
2022-08-17T08:49:33.858Z,26.70
2022-08-17T08:53:02.529Z,26.70
2022-08-17T08:56:00.847Z,26.80
2022-08-17T08:58:50.397Z,26.80
2022-08-17T09:01:29.405Z,26.90
2022-08-17T09:04:27.102Z,27.00
2022-08-17T09:07:23.609Z,27.00
2022-08-17T09:10:05.399Z,27.10
2022-08-17T09:12:54.942Z,27.10
2022-08-17T09:15:39.982Z,27.20
2022-08-17T09:19:02.551Z,27.20
2022-08-17T09:21:33.716Z,27.20
2022-08-17T09:24:15.686Z,27.30
2022-08-17T09:27:26.390Z,27.40
2022-08-17T09:30:01.581Z,27.50
2022-08-17T09:32:39.099Z,27.50
2022-08-17T09:35:37.440Z,27.50
2022-08-17T09:38:40.453Z,27.60
2022-08-17T09:41:21.600Z,27.70
2022-08-17T09:44:22.527Z,27.80
2022-08-17T09:47:13.346Z,27.80
2022-08-17T09:49:42.440Z,27.90
2022-08-17T09:52:15.539Z,28.00
2022-08-17T09:54:47.049Z,27.90
2022-08-17T09:57:31.845Z,28.00
2022-08-17T10:00:16.506Z,28.00
2022-08-17T10:03:03.222Z,28.10
2022-08-17T10:05:56.951Z,28.30
2022-08-17T10:08:30.243Z,28.30
2022-08-17T10:11:27.946Z,28.20
2022-08-17T10:14:37.929Z,28.30
2022-08-17T10:17:22.258Z,28.30
2022-08-17T10:20:16.882Z,28.40
2022-08-17T10:23:15.305Z,28.50
2022-08-17T10:26:14.791Z,28.50
2022-08-17T10:28:59.215Z,28.50
2022-08-17T10:31:48.951Z,28.50
2022-08-17T10:34:47.961Z,28.60
2022-08-17T10:38:00.769Z,28.70
2022-08-17T10:41:05.812Z,28.70
2022-08-17T10:44:39.609Z,28.70
2022-08-17T10:47:02.573Z,28.90
2022-08-17T10:49:55.891Z,29.00
2022-08-17T10:52:28.633Z,29.20
2022-08-17T10:54:58.717Z,29.40
2022-08-17T10:57:57.001Z,29.60
2022-08-17T11:00:35.800Z,29.70
2022-08-17T11:03:17.929Z,29.70
2022-08-17T11:06:32.580Z,29.70
2022-08-17T11:09:23.118Z,29.60
2022-08-17T11:12:03.907Z,29.60
2022-08-17T11:15:02.291Z,29.60
2022-08-17T11:17:49.649Z,29.70
2022-08-17T11:20:41.981Z,29.80
2022-08-17T11:23:08.967Z,29.80
2022-08-17T11:26:19.494Z,29.90
2022-08-17T11:28:53.475Z,30.00
2022-08-17T11:31:46.298Z,30.00
2022-08-17T11:34:22.958Z,30.10
2022-08-17T11:37:31.828Z,30.10
2022-08-17T11:43:21.257Z,30.00
2022-08-17T11:46:22.588Z,30.20
2022-08-17T11:49:29.193Z,30.20
2022-08-17T11:52:17.263Z,30.20
2022-08-17T11:54:46.729Z,30.20
2022-08-17T11:57:27.048Z,30.20
2022-08-17T12:00:32.611Z,30.20
2022-08-17T12:03:33.458Z,30.20
2022-08-17T12:06:29.667Z,30.30
2022-08-17T12:09:21.084Z,30.40
2022-08-17T12:12:12.361Z,30.50
2022-08-17T12:15:08.780Z,30.60
2022-08-17T12:17:41.669Z,30.60
2022-08-17T12:20:25.573Z,30.60
2022-08-17T12:23:07.133Z,30.70
2022-08-17T12:26:05.860Z,30.80
2022-08-17T12:28:36.259Z,30.80
2022-08-17T12:31:07.350Z,30.60
2022-08-17T12:33:37.088Z,30.60
2022-08-17T12:36:09.495Z,30.50
2022-08-17T12:38:38.634Z,30.50
2022-08-17T12:41:26.435Z,30.60
2022-08-17T12:44:02.590Z,30.70
2022-08-17T12:46:34.875Z,30.50
2022-08-17T12:49:18.776Z,30.30
2022-08-17T12:51:48.972Z,30.10
2022-08-17T12:54:41.324Z,30.10
2022-08-17T12:57:15.913Z,30.20
2022-08-17T12:59:49.086Z,30.30
2022-08-17T13:02:32.605Z,30.40
2022-08-17T13:05:01.735Z,30.50
2022-08-17T13:07:36.291Z,30.50
2022-08-17T13:10:04.274Z,30.60
2022-08-17T13:12:35.035Z,30.60
2022-08-17T13:15:02.653Z,30.60
2022-08-17T13:17:34.722Z,30.50
2022-08-17T13:20:05.818Z,30.50
2022-08-17T13:22:32.825Z,30.60
2022-08-17T13:25:07.607Z,30.50
2022-08-17T13:27:34.695Z,30.50
2022-08-17T13:30:08.170Z,30.50
2022-08-17T13:32:48.719Z,30.50
2022-08-17T13:35:41.096Z,30.40
2022-08-17T13:38:10.674Z,30.40
2022-08-17T13:40:42.564Z,30.40
2022-08-17T13:43:10.611Z,30.40
2022-08-17T13:45:50.799Z,30.40
2022-08-17T13:48:30.794Z,30.30
2022-08-17T13:50:57.631Z,30.30
2022-08-17T13:53:24.419Z,30.20
2022-08-17T13:55:56.166Z,30.20
2022-08-17T13:58:46.204Z,30.30
2022-08-17T14:01:53.522Z,30.30
2022-08-17T14:04:24.384Z,30.50
2022-08-17T14:06:53.363Z,30.60
2022-08-17T14:09:25.464Z,30.70
2022-08-17T14:11:54.428Z,30.70
2022-08-17T14:14:23.253Z,30.80
2022-08-17T14:16:51.990Z,31.00
2022-08-17T14:19:22.029Z,31.30
2022-08-17T14:21:49.245Z,31.50
2022-08-17T14:24:26.898Z,31.60
2022-08-17T14:26:56.702Z,31.70
2022-08-17T14:29:25.921Z,31.80
2022-08-17T14:31:54.169Z,32.00
2022-08-17T14:34:24.329Z,32.10
2022-08-17T14:36:52.111Z,32.00
2022-08-17T14:39:19.477Z,31.80
2022-08-17T14:41:46.379Z,31.40
2022-08-17T14:44:13.439Z,31.20
2022-08-17T14:46:44.791Z,31.10
2022-08-17T14:49:13.231Z,31.00
2022-08-17T14:51:44.220Z,30.80
2022-08-17T14:54:29.415Z,30.60
2022-08-17T14:57:22.764Z,30.40
2022-08-17T14:59:54.707Z,30.30
2022-08-17T15:02:29.738Z,30.20
2022-08-17T15:05:04.633Z,30.10
2022-08-17T15:07:31.869Z,30.20
2022-08-17T15:10:02.662Z,30.00
2022-08-17T15:12:34.108Z,29.90
2022-08-17T15:15:04.771Z,29.70
2022-08-17T15:17:44.519Z,29.50
2022-08-17T15:20:25.371Z,29.40
2022-08-17T15:22:56.076Z,29.40
2022-08-17T15:25:31.430Z,29.60
2022-08-17T15:27:59.421Z,29.70
2022-08-17T15:30:27.212Z,29.70
2022-08-17T15:32:56.692Z,29.80
2022-08-17T15:35:27.359Z,29.80
2022-08-17T15:37:57.960Z,29.80
2022-08-17T15:40:25.271Z,29.80
2022-08-17T15:42:52.948Z,29.70
2022-08-17T15:45:24.896Z,29.80
2022-08-17T15:47:52.957Z,30.00
2022-08-17T15:50:20.155Z,30.20
2022-08-17T15:52:47.637Z,30.50
2022-08-17T15:55:15.425Z,30.50
2022-08-17T15:57:42.908Z,30.10
2022-08-17T16:00:10.643Z,29.70
2022-08-17T16:03:45.010Z,29.50
2022-08-17T16:05:28.156Z,29.50
2022-08-17T16:07:58.758Z,29.50
2022-08-17T16:10:35.303Z,29.70
2022-08-17T16:13:04.324Z,29.80
2022-08-17T16:15:32.056Z,29.80
2022-08-17T16:17:59.257Z,29.70
2022-08-17T16:20:26.306Z,29.50
2022-08-17T16:22:54.563Z,29.40
2022-08-17T16:25:53.041Z,29.40
2022-08-17T16:28:17.657Z,29.40
2022-08-17T16:30:44.691Z,29.50
2022-08-17T16:33:12.740Z,29.60
2022-08-17T16:35:39.912Z,29.50
2022-08-17T16:38:07.421Z,29.60
2022-08-17T16:40:36.186Z,29.80
2022-08-17T16:43:04.562Z,29.90
2022-08-17T16:45:40.483Z,30.00
2022-08-17T16:48:08.991Z,29.80
2022-08-17T16:50:36.582Z,29.80
2022-08-17T16:53:17.175Z,29.70
2022-08-17T16:55:45.857Z,29.60
2022-08-17T16:58:13.151Z,29.40
2022-08-17T17:00:42.009Z,29.30
2022-08-17T17:03:21.856Z,29.30
2022-08-17T17:06:18.703Z,29.10
2022-08-17T17:08:59.061Z,29.20
2022-08-17T17:11:42.601Z,29.10
2022-08-17T17:14:30.511Z,29.20
2022-08-17T17:17:05.191Z,29.10
2022-08-17T17:19:36.586Z,29.10
2022-08-17T17:23:01.402Z,29.00
2022-08-17T17:25:32.534Z,29.00
2022-08-17T17:28:42.635Z,28.90
2022-08-17T17:31:23.826Z,28.90
2022-08-17T17:33:56.397Z,28.80
2022-08-17T17:36:47.360Z,28.80
2022-08-17T17:39:54.097Z,28.90
2022-08-17T17:42:24.639Z,28.90
2022-08-17T17:45:05.070Z,28.90
2022-08-17T17:47:33.079Z,28.90
2022-08-17T17:50:02.060Z,28.90
2022-08-17T17:52:41.106Z,28.90
2022-08-17T17:55:15.869Z,28.80
2022-08-17T17:58:09.051Z,28.80
2022-08-17T18:00:52.365Z,28.70
2022-08-17T18:03:24.922Z,28.70
2022-08-17T18:06:28.157Z,28.70
2022-08-17T18:09:08.726Z,28.70
2022-08-17T18:11:44.180Z,28.70
2022-08-17T18:14:42.223Z,28.60
2022-08-17T18:17:09.128Z,28.60
2022-08-17T18:19:40.006Z,28.60
2022-08-17T18:22:15.027Z,28.60
2022-08-17T18:25:05.672Z,28.60
2022-08-17T18:27:49.513Z,28.60
2022-08-17T18:30:20.255Z,28.60
2022-08-17T18:32:47.669Z,28.60
2022-08-17T18:35:14.534Z,28.50
2022-08-17T18:37:49.020Z,28.50
2022-08-17T18:40:21.475Z,28.50
2022-08-17T18:43:00.511Z,28.60
2022-08-17T18:45:43.898Z,28.60
2022-08-17T18:48:48.553Z,28.70
2022-08-17T18:51:43.012Z,28.70
2022-08-17T18:54:25.071Z,28.70
2022-08-17T18:57:02.159Z,28.80
2022-08-17T18:59:39.104Z,28.80
2022-08-17T19:02:18.679Z,28.80
2022-08-17T19:05:17.297Z,28.70
2022-08-17T19:07:46.985Z,28.70
2022-08-17T19:10:19.958Z,28.50
2022-08-17T19:13:00.727Z,28.50
2022-08-17T19:15:35.539Z,28.40
2022-08-17T19:18:25.834Z,28.40
2022-08-17T19:21:07.773Z,28.30
2022-08-17T19:24:04.484Z,28.20
2022-08-17T19:26:53.375Z,28.20
2022-08-17T19:29:29.774Z,28.20
2022-08-17T19:32:02.543Z,28.20
2022-08-17T19:34:37.292Z,28.20
2022-08-17T19:37:31.532Z,28.10
2022-08-17T19:40:48.892Z,28.10
2022-08-17T19:43:21.151Z,28.00
2022-08-17T19:46:29.388Z,27.90
2022-08-17T19:49:09.506Z,27.80
2022-08-17T19:51:59.198Z,27.70
2022-08-17T19:54:40.617Z,27.60
2022-08-17T19:57:20.065Z,27.60
2022-08-17T20:00:17.473Z,27.50
2022-08-17T20:02:55.315Z,27.40
2022-08-17T20:06:08.815Z,27.30
2022-08-17T20:08:38.043Z,27.40
2022-08-17T20:11:20.412Z,27.40
2022-08-17T20:14:10.455Z,27.40
2022-08-17T20:16:37.659Z,27.30
2022-08-17T20:19:23.114Z,27.20
2022-08-17T20:22:04.207Z,27.10
2022-08-17T20:24:58.550Z,27.00
2022-08-17T20:27:31.803Z,26.90
2022-08-17T20:30:01.746Z,26.90
2022-08-17T20:32:52.631Z,26.90
2022-08-17T20:35:40.321Z,26.90
2022-08-17T20:38:39.534Z,26.90
2022-08-17T20:41:15.499Z,27.00
2022-08-17T20:43:47.146Z,27.00
2022-08-17T20:46:38.986Z,27.00
2022-08-17T20:49:14.940Z,26.90
2022-08-17T20:52:00.734Z,26.70
2022-08-17T20:54:44.492Z,26.50
2022-08-17T20:57:33.196Z,26.30
2022-08-17T21:00:14.213Z,26.20
2022-08-17T21:02:46.726Z,26.20
2022-08-17T21:05:34.552Z,26.30
2022-08-17T21:08:16.628Z,26.30
2022-08-17T21:10:46.533Z,26.30
2022-08-17T21:13:15.507Z,26.20
2022-08-17T21:15:54.641Z,26.10
2022-08-17T21:18:45.937Z,26.10
2022-08-17T21:21:31.786Z,26.10
2022-08-17T21:24:19.654Z,26.10
2022-08-17T21:27:30.299Z,26.10
2022-08-17T21:30:06.631Z,26.10
2022-08-17T21:32:40.496Z,26.00
2022-08-17T21:35:12.584Z,25.80
2022-08-17T21:37:44.445Z,25.70
2022-08-17T21:40:11.308Z,25.70
2022-08-17T21:42:46.547Z,25.70
2022-08-17T21:45:22.698Z,25.80
2022-08-17T21:47:52.010Z,25.80
2022-08-17T21:50:24.203Z,25.80
2022-08-17T21:52:55.903Z,25.90
2022-08-17T21:55:30.445Z,26.00
2022-08-17T21:58:14.765Z,26.10
2022-08-17T22:00:44.635Z,26.10
2022-08-17T22:03:24.330Z,26.20
2022-08-17T22:05:51.579Z,26.10
2022-08-17T22:08:22.094Z,25.90
2022-08-17T22:10:51.255Z,25.80
2022-08-17T22:13:18.289Z,25.60
2022-08-17T22:15:50.936Z,25.50
2022-08-17T22:18:27.192Z,25.40
2022-08-17T22:20:56.721Z,25.30
2022-08-17T22:23:46.236Z,25.30
2022-08-17T22:26:15.587Z,25.20
2022-08-17T22:28:42.540Z,25.30
2022-08-17T22:31:13.261Z,25.30
2022-08-17T22:33:46.891Z,25.30
2022-08-17T22:36:40.385Z,25.30
2022-08-17T22:39:08.331Z,25.40
2022-08-17T22:41:41.518Z,25.40
2022-08-17T22:44:14.082Z,25.40
2022-08-17T22:46:51.873Z,25.40
2022-08-17T22:49:29.286Z,25.40
2022-08-17T22:52:06.572Z,25.40
2022-08-17T22:54:52.626Z,25.40
2022-08-17T22:57:41.782Z,25.30
2022-08-17T23:00:39.393Z,25.40
2022-08-17T23:03:12.538Z,25.40
2022-08-17T23:05:42.965Z,25.40
2022-08-17T23:08:11.548Z,25.40
2022-08-17T23:10:42.387Z,25.30
2022-08-17T23:13:11.989Z,25.20
2022-08-17T23:15:40.999Z,25.20
2022-08-17T23:18:07.976Z,25.20
2022-08-17T23:20:37.253Z,25.30
2022-08-17T23:23:06.820Z,25.20
2022-08-17T23:25:35.101Z,25.20
2022-08-17T23:28:05.038Z,25.10
2022-08-17T23:30:35.475Z,25.10
2022-08-17T23:33:06.574Z,25.10
2022-08-17T23:35:39.868Z,25.10
2022-08-17T23:38:12.853Z,25.00
2022-08-17T23:40:40.870Z,24.90
2022-08-17T23:43:23.623Z,24.90
2022-08-17T23:45:58.535Z,24.80
2022-08-17T23:48:35.016Z,24.70
2022-08-17T23:51:10.635Z,24.60
2022-08-17T23:53:42.209Z,24.60
2022-08-17T23:56:11.187Z,24.60
2022-08-17T23:58:43.472Z,24.60
